Holland, MI

5:11 AM EDT on August 29, 2015 (GMT -0400)
Hope College | | Change Station
CLOSE
Current Station
Personal Weather Station
Location: Holland, MI
Elevation: 617 ft
Nearby Weather Stations

Elev 617 ft 42.79 °N, 86.10 °W | Updated 4 minutes ago

Partly Cloudy
Partly Cloudy
64.6 °F
Feels Like 64.6 °F
N
0.0
Wind Variable Wind from ENE
Gusts 4.0 mph

Today
High -- | Low -- °F
--% Chance of Precip.
Yesterday
High -- | Low -- °F
Precip. -- in
7:05 AM 8:24 PM
Full, 100% visible
Pressure 30.09 in
Visibility 7.0 miles
Clouds Few 6000 ft
Dew Point 62 °F
Humidity 90%
Rainfall 0.00 in
Snow Depth Not available.
UV 0.0 out of 12
Pollen 8.80 out of 12
Air Quality Not available.
Flu Activity Not available.
METAR KBIV 290853Z AUTO 07005KT 7SM FEW060 18/17 A3010 RMK AO2 SLP189 T01830167 56010
Pressure 30.09 in
Visibility 7.0 miles
Clouds Few 6000 ft
Dew Point 62 °F
Humidity 90%
Rainfall 0.00 in
Snow Depth Not available.
UV 0.0 out of 12
Pollen 8.80 out of 12
Air Quality Not available.
Flu Activity Not available.
METAR KBIV 290853Z AUTO 07005KT 7SM FEW060 18/17 A3010 RMK AO2 SLP189 T01830167 56010

10-Day Weather Forecast

×

Almanac

Astronomy

Aug. 29, 2015 Rise Set
Actual Time
Civil Twilight
Nautical Twilight
Astronomical Twilight
Moon
Length of Visible Light
Length of Day
Tomorrow will be .
, % of the Moon is Illuminated

Today's Extremes

State Highs State Lows

Community

WunderPhotos

Upload Photos

1,850,634 photos uploaded!

WunderBlogs® & News

Nearby

Air Quality

  Air Quality AQ Index Pollutant
Not available.

Snow Depth

Station Depth Elevation

Earthquake Activity

City Distance Mag. Time & Date
Minimum magnitude displayed is 2.5.

Coastal Water Temperatures

Place Temperature

Stations

Nearby Weather Stations

Station Location Temp. Windchill Dew Point Humidity Wind Precip. Elev Updated Type